Terminal Aerodrome Forecast
Issued by NWS

Home | Current Version | Previous Version | Graphics & Text | Print | Product List | Glossary Off
Versions: 1 2 3 4 5 6 7 8 9 10 11 12 13 14 15 16 17 18 19 20 21 22 23 24 25 26 27 28 29 30 31 32 33 34 35 36 37 38 39 40 41 42 43 44 45 46 47 48 49

421
FTUS43 KDDC 240214 AAA
TAFGCK
TAF AMD
KGCK 240214Z 2402/2424 16012KT P6SM VCTS BKN050 BKN070CB
      TEMPO 2402/2406 5SM -TSRA OVC040CB
     FM240700 16015G23KT P6SM VCTS BKN060CB=

USA.gov is the U.S. government's official web portal to all federal, state and local government web resources and services.